Time;durP1;ratioP1;P1;durP2;ratioP2;P2;SDS_P1;SDS_P2;PMS_P1;PMS_P2;Temp;Humidity;BMP_temperature;BMP_pressure;BME280_temperature;BME280_humidity;BME280_pressure;Samples;Min_cycle;Max_cycle;Signal;HPM_P1;HPM_P2
2022/06/07 00:00:34;;;;;;;3.90;2.53;;;;;;;;;;6190861;23;20000;-85
2022/06/07 00:03:00;;;;;;;10.65;2.60;;;;;;;;;;6190592;23;20385;-83
2022/06/07 00:05:27;;;;;;;21.83;2.85;;;;;;;;;;6190283;23;20020;-85
2022/06/07 00:07:54;;;;;;;11.13;2.80;;;;;;;;;;6190489;23;20001;-83
2022/06/07 00:10:21;;;;;;;4.65;2.55;;;;;;;;;;6190385;23;20012;-84
2022/06/07 00:12:47;;;;;;;5.60;2.75;;;;;;;;;;6190707;23;20011;-84
2022/06/07 00:15:13;;;;;;;6.00;2.80;;;;;;;;;;6190496;23;20426;-84
2022/06/07 00:17:39;;;;;;;4.97;2.10;;;;;;;;;;6190267;23;20009;-86
2022/06/07 00:20:06;;;;;;;5.30;2.30;;;;;;;;;;6190408;23;20035;-86
2022/06/07 00:22:32;;;;;;;6.45;2.67;;;;;;;;;;6190558;23;20009;-84
2022/06/07 00:24:58;;;;;;;6.53;2.90;;;;;;;;;;6190170;23;20457;-84
2022/06/07 00:27:24;;;;;;;6.70;3.30;;;;;;;;;;6190115;23;20009;-84
2022/06/07 00:29:51;;;;;;;5.18;3.03;;;;;;;;;;6216631;23;20076;-85
2022/06/07 00:32:20;;;;;;;5.95;2.88;;;;;;;;;;6190329;23;20058;-85
2022/06/07 00:34:46;;;;;;;7.30;2.60;;;;;;;;;;6190173;23;20426;-84
2022/06/07 00:37:12;;;;;;;6.20;2.58;;;;;;;;;;6190311;23;20422;-84
2022/06/07 00:39:39;;;;;;;6.03;2.60;;;;;;;;;;6189975;23;20009;-85
2022/06/07 00:42:06;;;;;;;4.93;2.40;;;;;;;;;;6189666;23;20462;-84
2022/06/07 00:44:37;;;;;;;6.28;2.72;;;;;;;;;;6190250;23;20008;-84
2022/06/07 00:47:03;;;;;;;12.32;2.85;;;;;;;;;;6190031;23;20039;-83
2022/06/07 00:49:32;;;;;;;3.47;2.40;;;;;;;;;;6190006;23;20011;-85
2022/06/07 00:51:58;;;;;;;8.55;2.72;;;;;;;;;;6189896;23;20005;-84
2022/06/07 00:54:28;;;;;;;8.57;2.70;;;;;;;;;;6190065;23;20430;-84
2022/06/07 00:56:54;;;;;;;9.45;2.75;;;;;;;;;;6190155;23;20009;-84
2022/06/07 00:59:21;;;;;;;4.10;2.60;;;;;;;;;;6190113;23;20048;-84
2022/06/07 01:01:47;;;;;;;7.47;2.50;;;;;;;;;;6189767;23;20004;-83
2022/06/07 01:04:13;;;;;;;4.85;3.22;;;;;;;;;;6216361;23;20000;-84
2022/06/07 01:12:10;;;;;;;10.70;3.17;;;;;;;;;;6216017;23;20390;-84
2022/06/07 01:14:36;;;;;;;6.35;2.90;;;;;;;;;;6189917;23;20395;-85
2022/06/07 01:17:02;;;;;;;5.45;2.60;;;;;;;;;;6189969;23;20023;-84
2022/06/07 01:19:28;;;;;;;5.13;2.60;;;;;;;;;;6190278;23;20012;-85
2022/06/07 01:21:54;;;;;;;9.32;2.50;;;;;;;;;;6190192;23;20508;-86
2022/06/07 01:24:21;;;;;;;11.35;2.60;;;;;;;;;;6189744;23;20080;-85
2022/06/07 01:26:47;;;;;;;6.30;2.45;;;;;;;;;;6189747;23;20385;-83
2022/06/07 01:29:15;;;;;;;6.28;2.90;;;;;;;;;;6189939;23;20005;-83
2022/06/07 01:31:41;;;;;;;7.68;2.40;;;;;;;;;;6216250;23;19996;-84
2022/06/07 01:34:09;;;;;;;8.75;2.67;;;;;;;;;;6189852;23;20011;-85
2022/06/07 01:36:35;;;;;;;7.03;2.85;;;;;;;;;;6189823;23;20013;-84
2022/06/07 01:41:55;;;;;;;6.40;2.47;;;;;;;;;;6216003;23;20074;-84
2022/06/07 01:44:22;;;;;;;8.90;2.72;;;;;;;;;;6190025;23;20009;-85
2022/06/07 01:46:49;;;;;;;5.45;2.53;;;;;;;;;;6216984;23;20016;-84
2022/06/07 01:49:16;;;;;;;6.30;3.10;;;;;;;;;;6191511;23;20028;-83
2022/06/07 01:51:42;;;;;;;5.38;2.92;;;;;;;;;;6191562;23;20009;-84
2022/06/07 01:54:09;;;;;;;4.47;2.72;;;;;;;;;;6191532;23;20004;-87
2022/06/07 01:56:35;;;;;;;4.53;2.63;;;;;;;;;;6191461;23;20009;-84
2022/06/07 01:59:02;;;;;;;12.40;3.25;;;;;;;;;;6191475;23;20057;-83
2022/06/07 02:01:29;;;;;;;6.30;2.70;;;;;;;;;;6191705;23;20004;-85
2022/06/07 02:03:55;;;;;;;8.77;3.45;;;;;;;;;;6191702;23;20005;-84
2022/06/07 02:06:22;;;;;;;7.38;2.90;;;;;;;;;;6191740;23;20012;-85
2022/06/07 02:08:48;;;;;;;6.32;3.10;;;;;;;;;;6191483;23;20434;-85
2022/06/07 02:11:16;;;;;;;5.25;2.40;;;;;;;;;;6191381;23;20632;-83
2022/06/07 02:13:43;;;;;;;6.72;2.85;;;;;;;;;;6191553;23;20000;-84
2022/06/07 02:16:09;;;;;;;5.40;2.90;;;;;;;;;;6217995;23;20047;-83
2022/06/07 02:18:36;;;;;;;6.60;2.90;;;;;;;;;;6191535;23;20000;-83
2022/06/07 02:21:03;;;;;;;6.07;2.55;;;;;;;;;;6191353;23;20016;-83
2022/06/07 02:23:29;;;;;;;6.25;2.95;;;;;;;;;;6191381;23;20004;-84
2022/06/07 02:25:57;;;;;;;6.53;2.67;;;;;;;;;;6190974;23;20016;-86
2022/06/07 02:28:25;;;;;;;5.55;2.80;;;;;;;;;;6191342;23;20005;-83
2022/06/07 02:30:52;;;;;;;7.88;2.75;;;;;;;;;;6191087;23;20032;-84
2022/06/07 02:33:18;;;;;;;6.88;3.00;;;;;;;;;;6191109;23;20005;-82
2022/06/07 02:35:45;;;;;;;5.70;2.80;;;;;;;;;;6191195;23;20062;-85
2022/06/07 02:38:11;;;;;;;9.70;2.90;;;;;;;;;;6191266;23;20005;-84
2022/06/07 02:40:38;;;;;;;6.40;2.85;;;;;;;;;;6217623;23;20075;-82
2022/06/07 02:43:04;;;;;;;6.90;3.03;;;;;;;;;;6190805;23;20032;-84
2022/06/07 02:45:30;;;;;;;5.68;3.20;;;;;;;;;;6191023;23;20338;-83
2022/06/07 02:47:57;;;;;;;5.18;2.97;;;;;;;;;;6217318;23;20008;-84
2022/06/07 02:50:23;;;;;;;6.15;2.97;;;;;;;;;;6190919;23;20012;-83
2022/06/07 02:52:50;;;;;;;9.68;3.22;;;;;;;;;;6191051;23;20342;-83
2022/06/07 02:55:17;;;;;;;8.02;2.90;;;;;;;;;;6217312;23;20308;-83
2022/06/07 02:57:43;;;;;;;3.90;2.97;;;;;;;;;;6190538;23;20442;-83
2022/06/07 03:00:11;;;;;;;4.18;2.90;;;;;;;;;;6190873;23;20009;-84
2022/06/07 03:02:37;;;;;;;7.00;3.08;;;;;;;;;;6190935;23;20008;-83
2022/06/07 03:05:04;;;;;;;5.55;3.20;;;;;;;;;;6190794;23;20000;-83
2022/06/07 03:07:30;;;;;;;6.72;2.85;;;;;;;;;;6190500;23;20456;-83
2022/06/07 03:09:56;;;;;;;7.88;2.80;;;;;;;;;;6190962;23;20071;-83
2022/06/07 03:12:22;;;;;;;5.30;3.53;;;;;;;;;;6190798;23;20084;-83
2022/06/07 03:14:48;;;;;;;6.82;3.20;;;;;;;;;;6190738;23;20436;-83
2022/06/07 03:17:14;;;;;;;8.00;3.47;;;;;;;;;;6190688;23;20016;-83
2022/06/07 03:19:40;;;;;;;5.88;2.92;;;;;;;;;;6190590;23;20001;-83
2022/06/07 03:22:07;;;;;;;6.82;3.10;;;;;;;;;;6190811;23;20087;-84
2022/06/07 03:24:34;;;;;;;4.63;3.03;;;;;;;;;;6190647;23;20032;-85
2022/06/07 03:27:00;;;;;;;4.85;3.33;;;;;;;;;;6190596;23;20040;-84
2022/06/07 03:29:26;;;;;;;5.43;3.17;;;;;;;;;;6190488;23;20007;-83
2022/06/07 03:31:52;;;;;;;5.85;3.20;;;;;;;;;;6216833;23;20469;-85
2022/06/07 03:34:19;;;;;;;9.35;3.50;;;;;;;;;;6190844;23;20005;-84
2022/06/07 03:36:45;;;;;;;4.85;3.22;;;;;;;;;;6190685;23;20352;-85
2022/06/07 03:39:11;;;;;;;5.43;3.67;;;;;;;;;;6190708;23;20020;-83
2022/06/07 03:41:38;;;;;;;7.82;3.60;;;;;;;;;;6190290;23;20040;-84
2022/06/07 03:44:05;;;;;;;5.88;3.20;;;;;;;;;;6190695;23;20005;-83
2022/06/07 03:46:35;;;;;;;7.22;3.20;;;;;;;;;;6190568;23;20012;-85
2022/06/07 03:49:01;;;;;;;6.22;3.30;;;;;;;;;;6190391;23;20430;-84
2022/06/07 03:51:28;;;;;;;7.55;3.10;;;;;;;;;;6190677;23;20012;-84
2022/06/07 03:53:55;;;;;;;4.30;2.88;;;;;;;;;;6190521;23;20012;-83
2022/06/07 03:56:21;;;;;;;4.85;3.10;;;;;;;;;;6217248;23;20035;-84
2022/06/07 03:58:48;;;;;;;4.80;3.08;;;;;;;;;;6190206;23;20011;-84
2022/06/07 04:01:15;;;;;;;4.50;3.08;;;;;;;;;;6190410;23;20492;-84
2022/06/07 04:03:43;;;;;;;4.95;3.17;;;;;;;;;;6190406;23;20445;-86
2022/06/07 04:06:16;;;;;;;5.95;3.17;;;;;;;;;;6190448;23;20019;-85
2022/06/07 04:08:42;;;;;;;3.75;2.50;;;;;;;;;;6190583;23;20009;-84
2022/06/07 04:11:10;;;;;;;5.57;3.15;;;;;;;;;;6190403;23;20005;-85
2022/06/07 04:13:37;;;;;;;5.93;2.72;;;;;;;;;;6190849;23;20013;-85
2022/06/07 04:16:06;;;;;;;4.65;2.90;;;;;;;;;;6216786;23;20000;-83
2022/06/07 04:18:33;;;;;;;7.18;2.90;;;;;;;;;;6215921;23;20008;-84
2022/06/07 04:20:59;;;;;;;4.97;2.95;;;;;;;;;;6190863;23;20054;-82
2022/06/07 04:23:25;;;;;;;5.70;3.17;;;;;;;;;;6191071;23;20004;-88
2022/06/07 04:25:52;;;;;;;3.35;2.53;;;;;;;;;;6190379;23;20013;-85
2022/06/07 04:28:18;;;;;;;3.80;2.80;;;;;;;;;;6190352;23;20335;-86
2022/06/07 04:30:45;;;;;;;5.38;3.08;;;;;;;;;;6189942;23;20095;-85
2022/06/07 04:33:12;;;;;;;5.13;2.97;;;;;;;;;;6190477;23;20011;-88
2022/06/07 04:35:42;;;;;;;4.97;2.38;;;;;;;;;;6190959;23;20087;-91
2022/06/07 04:38:09;;;;;;;5.32;2.10;;;;;;;;;;6190904;23;20005;-87
2022/06/07 04:40:35;;;;;;;4.15;2.00;;;;;;;;;;6190487;23;20414;-86
2022/06/07 04:43:01;;;;;;;2.97;1.70;;;;;;;;;;6162383;23;20021;-84
2022/06/07 04:45:27;;;;;;;4.35;1.40;;;;;;;;;;6160323;23;20009;-85
2022/06/07 04:47:53;;;;;;;3.08;1.60;;;;;;;;;;6160280;23;20013;-91
2022/06/07 04:50:20;;;;;;;2.10;1.20;;;;;;;;;;6160622;23;20009;-85
2022/06/07 04:52:46;;;;;;;2.20;1.30;;;;;;;;;;6160868;23;20011;-85
2022/06/07 04:55:13;;;;;;;2.72;1.40;;;;;;;;;;6162763;23;20448;-91
2022/06/07 04:57:40;;;;;;;1.73;0.90;;;;;;;;;;6160281;23;20001;-90
2022/06/07 05:00:07;;;;;;;3.90;1.10;;;;;;;;;;6159433;23;20005;-83
2022/06/07 05:02:35;;;;;;;4.78;1.30;;;;;;;;;;6160186;23;20308;-86
2022/06/07 05:05:04;;;;;;;3.30;1.20;;;;;;;;;;6160220;23;20312;-85
2022/06/07 05:07:31;;;;;;;2.97;1.20;;;;;;;;;;6160133;23;20020;-87
2022/06/07 05:09:58;;;;;;;3.42;1.23;;;;;;;;;;6161908;23;20009;-85
2022/06/07 05:12:24;;;;;;;2.63;1.40;;;;;;;;;;6159317;23;20047;-84
2022/06/07 05:14:50;;;;;;;8.05;1.50;;;;;;;;;;6185303;23;20008;-86
2022/06/07 05:17:16;;;;;;;1.63;1.10;;;;;;;;;;6159218;23;20009;-92
2022/06/07 05:19:42;;;;;;;3.10;1.15;;;;;;;;;;6159398;23;20008;-91
2022/06/07 05:22:11;;;;;;;3.65;1.30;;;;;;;;;;6160991;23;20370;-84
2022/06/07 05:24:38;;;;;;;3.05;1.27;;;;;;;;;;6161382;23;20012;-86
2022/06/07 05:27:15;;;;;;;4.28;1.80;;;;;;;;;;6187462;23;20165;-88
2022/06/07 05:29:47;;;;;;;2.67;1.42;;;;;;;;;;6162464;23;20064;-84
2022/06/07 05:32:13;;;;;;;3.93;1.40;;;;;;;;;;6161634;23;20383;-83
2022/06/07 05:34:39;;;;;;;2.80;1.10;;;;;;;;;;6188312;23;20077;-85
2022/06/07 05:37:09;;;;;;;2.00;1.20;;;;;;;;;;6162221;23;20055;-86
2022/06/07 05:39:35;;;;;;;2.75;1.30;;;;;;;;;;6163143;23;20012;-94
2022/06/07 05:42:04;;;;;;;2.88;1.27;;;;;;;;;;6161610;23;20013;-87
2022/06/07 05:44:30;;;;;;;2.60;1.10;;;;;;;;;;6161953;23;20009;-90
2022/06/07 05:46:56;;;;;;;4.85;1.50;;;;;;;;;;6161796;23;20017;-86
2022/06/07 05:49:23;;;;;;;1.95;1.10;;;;;;;;;;6162159;23;20005;-90
2022/06/07 05:51:52;;;;;;;2.13;1.00;;;;;;;;;;6161167;23;20005;-90
2022/06/07 05:54:18;;;;;;;3.35;1.45;;;;;;;;;;6162152;23;20083;-91
2022/06/07 05:56:45;;;;;;;2.20;1.20;;;;;;;;;;6162538;23;20005;-85
2022/06/07 05:59:11;;;;;;;1.73;1.10;;;;;;;;;;6161546;23;20386;-92
2022/06/07 06:01:37;;;;;;;3.90;1.70;;;;;;;;;;6162040;23;20009;-86
2022/06/07 06:04:06;;;;;;;2.30;1.13;;;;;;;;;;6163849;23;20008;-89
2022/06/07 06:06:33;;;;;;;3.05;1.95;;;;;;;;;;6161761;23;20013;-86
2022/06/07 06:11:44;;;;;;;3.22;1.25;;;;;;;;;;6188082;23;20403;-84
2022/06/07 06:14:10;;;;;;;2.47;1.10;;;;;;;;;;6161078;23;20419;-80
2022/06/07 06:16:37;;;;;;;3.42;1.70;;;;;;;;;;6161031;23;20005;-81
2022/06/07 06:19:03;;;;;;;3.30;1.55;;;;;;;;;;6160988;23;20005;-80
2022/06/07 06:21:33;;;;;;;1.70;1.10;;;;;;;;;;6187353;23;20300;-79
2022/06/07 06:24:00;;;;;;;4.00;1.25;;;;;;;;;;6187632;23;20386;-91
2022/06/07 06:26:26;;;;;;;6.22;1.52;;;;;;;;;;6161463;23;20065;-83
2022/06/07 06:28:53;;;;;;;3.47;1.60;;;;;;;;;;6164108;23;20008;-84
2022/06/07 06:31:20;;;;;;;5.88;1.25;;;;;;;;;;6163723;23;20117;-90
2022/06/07 06:33:49;;;;;;;3.10;1.25;;;;;;;;;;6161107;23;20374;-86
2022/06/07 06:36:17;;;;;;;2.17;1.40;;;;;;;;;;6186954;23;20005;-88
2022/06/07 06:38:44;;;;;;;3.78;1.50;;;;;;;;;;6162745;23;20001;-89
2022/06/07 06:41:12;;;;;;;1.85;1.00;;;;;;;;;;6165246;23;20015;-88
2022/06/07 06:43:41;;;;;;;6.22;1.65;;;;;;;;;;6191639;23;20095;-86
2022/06/07 06:46:15;;;;;;;2.53;1.40;;;;;;;;;;6190761;23;20012;-87
2022/06/07 06:48:43;;;;;;;3.20;1.55;;;;;;;;;;6191169;23;20047;-88
2022/06/07 06:51:10;;;;;;;7.03;1.60;;;;;;;;;;6191179;23;20009;-83
2022/06/07 06:53:37;;;;;;;1.98;1.60;;;;;;;;;;6191058;23;20000;-91
2022/06/07 06:56:03;;;;;;;3.00;2.22;;;;;;;;;;6217920;23;19997;-87
2022/06/07 06:58:30;;;;;;;2.80;1.90;;;;;;;;;;6191001;23;20015;-86
2022/06/07 07:01:04;;;;;;;3.60;1.88;;;;;;;;;;6191223;23;20487;-83
2022/06/07 07:03:30;;;;;;;5.70;1.80;;;;;;;;;;6191137;23;20020;-87
2022/06/07 07:05:56;;;;;;;4.05;2.50;;;;;;;;;;6191095;23;20087;-90
2022/06/07 07:08:26;;;;;;;3.10;2.25;;;;;;;;;;6191129;23;20391;-84
2022/06/07 07:11:12;;;;;;;4.20;2.30;;;;;;;;;;6218681;23;20052;-89
2022/06/07 07:13:48;;;;;;;2.58;2.10;;;;;;;;;;6194089;23;20028;-92
2022/06/07 07:16:18;;;;;;;3.10;1.60;;;;;;;;;;6191173;23;20358;-84
2022/06/07 07:18:44;;;;;;;3.47;1.95;;;;;;;;;;6191451;23;20062;-91
2022/06/07 07:21:21;;;;;;;5.90;2.10;;;;;;;;;;6191364;23;20088;-89
2022/06/07 07:23:54;;;;;;;2.55;1.75;;;;;;;;;;6193619;23;20011;-95
2022/06/07 07:26:31;;;;;;;4.00;2.10;;;;;;;;;;6198809;23;20017;-84
2022/06/07 07:28:57;;;;;;;5.43;2.40;;;;;;;;;;6163831;23;20427;-83
2022/06/07 07:31:30;;;;;;;2.63;1.65;;;;;;;;;;6161399;23;20088;-93
2022/06/07 07:33:57;;;;;;;2.75;1.95;;;;;;;;;;6161905;23;20338;-84
2022/06/07 07:36:44;;;;;;;2.60;1.60;;;;;;;;;;6160981;23;20012;-95
2022/06/07 07:39:16;;;;;;;2.73;1.37;;;;;;;;;;6162490;23;20391;-95
2022/06/07 07:41:46;;;;;;;4.13;1.70;;;;;;;;;;6164062;23;20005;-96
2022/06/07 07:44:16;;;;;;;2.90;1.65;;;;;;;;;;6161053;23;20501;-83
2022/06/07 07:46:47;;;;;;;5.95;1.70;;;;;;;;;;6161001;23;20013;-83
2022/06/07 07:49:17;;;;;;;2.05;1.20;;;;;;;;;;6161227;23;20151;-93
2022/06/07 07:51:47;;;;;;;2.55;1.38;;;;;;;;;;6165795;23;20541;-89
2022/06/07 07:54:16;;;;;;;3.63;1.00;;;;;;;;;;6161739;23;20052;-86
2022/06/07 07:57:03;;;;;;;4.47;1.50;;;;;;;;;;6160653;23;20390;-87
2022/06/07 07:59:30;;;;;;;3.45;1.27;;;;;;;;;;6162470;23;20001;-86
2022/06/07 08:01:56;;;;;;;2.80;1.00;;;;;;;;;;6160350;23;20009;-91
2022/06/07 08:04:24;;;;;;;1.73;0.90;;;;;;;;;;6160860;23;20021;-90
2022/06/07 08:07:00;;;;;;;1.63;0.90;;;;;;;;;;6159931;23;20016;-89
2022/06/07 08:09:26;;;;;;;1.60;0.93;;;;;;;;;;6160005;23;20093;-82
2022/06/07 08:11:52;;;;;;;1.95;0.98;;;;;;;;;;6159596;23;20435;-84
2022/06/07 08:14:28;;;;;;;2.88;1.20;;;;;;;;;;6160123;23;20005;-94
2022/06/07 08:16:55;;;;;;;1.60;0.95;;;;;;;;;;6160006;23;20510;-85
2022/06/07 08:19:33;;;;;;;3.70;1.13;;;;;;;;;;6160278;23;20011;-92
2022/06/07 08:22:04;;;;;;;2.90;0.90;;;;;;;;;;6160638;23;20005;-92
2022/06/07 08:24:37;;;;;;;1.50;0.93;;;;;;;;;;6161070;23;20008;-86
2022/06/07 08:27:05;;;;;;;2.20;0.75;;;;;;;;;;6163708;23;20486;-93
2022/06/07 08:29:32;;;;;;;2.33;0.90;;;;;;;;;;6160787;23;20005;-86
2022/06/07 08:32:02;;;;;;;2.75;0.90;;;;;;;;;;6186654;23;20008;-93
2022/06/07 08:37:37;;;;;;;1.05;0.50;;;;;;;;;;6188468;23;20016;-82
2022/06/07 08:40:07;;;;;;;0.70;0.40;;;;;;;;;;6161564;23;20012;-84
2022/06/07 08:42:38;;;;;;;2.30;0.73;;;;;;;;;;6160585;23;20335;-84
2022/06/07 08:45:10;;;;;;;1.25;0.60;;;;;;;;;;6161057;23;20012;-96
2022/06/07 08:47:45;;;;;;;1.80;0.70;;;;;;;;;;6162876;23;20009;-96
2022/06/07 08:50:22;;;;;;;1.08;0.50;;;;;;;;;;6165702;22;20023;-94
2022/06/07 08:52:55;;;;;;;1.63;0.60;;;;;;;;;;6192367;23;20088;-91
2022/06/07 08:55:34;;;;;;;2.70;0.60;;;;;;;;;;6171666;23;20018;-93
2022/06/07 08:58:18;;;;;;;1.00;0.43;;;;;;;;;;6105466;23;20018;-94
2022/06/07 09:01:07;;;;;;;1.48;0.60;;;;;;;;;;6101921;23;20006;-83
2022/06/07 09:03:37;;;;;;;1.98;0.68;;;;;;;;;;6127607;23;20085;-92
2022/06/07 09:06:07;;;;;;;1.35;0.60;;;;;;;;;;6106718;23;20006;-90
2022/06/07 09:08:42;;;;;;;1.70;0.85;;;;;;;;;;6110892;23;19994;-94
2022/06/07 09:14:04;;;;;;;2.03;0.70;;;;;;;;;;6132327;23;20020;-95
2022/06/07 09:16:42;;;;;;;1.38;0.60;;;;;;;;;;6101503;23;20021;-93
2022/06/07 09:19:12;;;;;;;1.90;0.82;;;;;;;;;;6101875;23;20006;-92
2022/06/07 09:21:43;;;;;;;1.50;0.60;;;;;;;;;;6101547;23;20006;-90
2022/06/07 09:24:32;;;;;;;1.23;0.60;;;;;;;;;;6101507;23;20025;-91
2022/06/07 09:27:25;;;;;;;1.88;0.80;;;;;;;;;;6090161;23;20046;-91
2022/06/07 09:29:59;;;;;;;2.13;0.80;;;;;;;;;;6098727;23;20006;-89
2022/06/07 09:32:32;;;;;;;3.05;0.90;;;;;;;;;;6101690;23;20010;-89
2022/06/07 09:35:03;;;;;;;1.98;0.65;;;;;;;;;;6101686;23;20085;-89
2022/06/07 09:37:29;;;;;;;;;;;;;;;;;;6101712;23;20042;-89
2022/06/07 09:40:01;;;;;;;1.98;0.85;;;;;;;;;;6101095;23;19908;-89
2022/06/07 09:42:28;;;;;;;1.23;0.60;;;;;;;;;;6100802;23;20002;-84
2022/06/07 09:45:19;;;;;;;1.40;0.60;;;;;;;;;;6101111;23;20013;-86
2022/06/07 09:47:45;;;;;;;;;;;;;;;;;;6126828;23;20515;-85
2022/06/07 09:50:23;;;;;;;1.27;0.70;;;;;;;;;;6126993;23;19904;-92
2022/06/07 09:53:00;;;;;;;1.90;0.80;;;;;;;;;;6101433;23;20002;-92
2022/06/07 09:55:49;;;;;;;2.55;0.70;;;;;;;;;;6101062;23;20436;-86
2022/06/07 09:58:16;;;;;;;1.70;0.77;;;;;;;;;;6124751;23;20024;-84
2022/06/07 10:00:42;;;;;;;4.10;0.80;;;;;;;;;;6100704;23;20064;-86
2022/06/07 10:03:27;;;;;;;2.10;0.63;;;;;;;;;;6126342;23;20361;-90
2022/06/07 10:06:09;;;;;;;1.73;0.90;;;;;;;;;;6100143;23;20005;-89
2022/06/07 10:08:54;;;;;;;1.75;0.80;;;;;;;;;;6101982;23;20025;-86
2022/06/07 10:11:24;;;;;;;2.05;0.90;;;;;;;;;;6128900;23;20001;-83
2022/06/07 10:13:51;;;;;;;1.97;0.67;;;;;;;;;;6102314;23;20009;-90
2022/06/07 10:16:25;;;;;;;1.50;0.70;;;;;;;;;;6102527;23;20014;-84
2022/06/07 10:19:10;;;;;;;1.85;0.80;;;;;;;;;;6103078;23;20006;-93
2022/06/07 10:21:55;;;;;;;1.88;0.70;;;;;;;;;;6103386;23;20420;-90
2022/06/07 10:24:24;;;;;;;1.27;0.60;;;;;;;;;;6103182;23;20006;-90
2022/06/07 10:27:03;;;;;;;2.22;0.73;;;;;;;;;;6102755;23;20014;-91
2022/06/07 10:29:54;;;;;;;1.90;0.60;;;;;;;;;;6103557;23;20424;-92
2022/06/07 10:32:36;;;;;;;1.23;0.52;;;;;;;;;;6102413;23;20002;-93
2022/06/07 10:35:16;;;;;;;1.70;0.60;;;;;;;;;;6102695;23;20005;-92
2022/06/07 10:38:00;;;;;;;2.55;0.70;;;;;;;;;;6102144;23;20025;-84
2022/06/07 10:40:42;;;;;;;1.38;0.55;;;;;;;;;;6102696;23;20009;-83
2022/06/07 10:43:16;;;;;;;1.60;0.68;;;;;;;;;;6102954;23;20006;-93
2022/06/07 10:45:43;;;;;;;1.63;0.80;;;;;;;;;;6102626;23;20069;-92
2022/06/07 10:48:15;;;;;;;1.40;0.60;;;;;;;;;;6104220;23;20332;-87
2022/06/07 10:50:46;;;;;;;1.05;0.50;;;;;;;;;;6102586;23;20017;-84
2022/06/07 10:53:19;;;;;;;1.23;0.50;;;;;;;;;;6102725;23;20002;-86
2022/06/07 10:55:58;;;;;;;2.80;0.70;;;;;;;;;;6104317;23;20014;-84
2022/06/07 10:58:40;;;;;;;1.23;0.60;;;;;;;;;;6126621;23;20012;-85
2022/06/07 11:01:07;;;;;;;2.70;0.63;;;;;;;;;;6126376;23;20034;-86
2022/06/07 11:03:36;;;;;;;1.52;0.60;;;;;;;;;;6128012;23;20435;-82
2022/06/07 11:11:42;;;;;;;3.03;0.85;;;;;;;;;;6127764;23;20033;-84
2022/06/07 11:14:30;;;;;;;1.88;0.85;;;;;;;;;;6126148;23;20006;-81
2022/06/07 11:16:59;;;;;;;2.30;0.80;;;;;;;;;;6126012;23;20013;-86
2022/06/07 11:19:25;;;;;;;1.63;0.90;;;;;;;;;;6127240;23;20432;-87
2022/06/07 11:21:56;;;;;;;1.58;0.80;;;;;;;;;;6127710;23;20310;-82
2022/06/07 11:24:27;;;;;;;8.40;1.30;;;;;;;;;;6126007;23;20563;-83
2022/06/07 11:26:54;;;;;;;2.15;0.68;;;;;;;;;;6127887;23;20049;-84
2022/06/07 11:29:25;;;;;;;2.70;0.88;;;;;;;;;;6125886;23;20068;-84
2022/06/07 11:31:51;;;;;;;2.75;1.00;;;;;;;;;;6127413;23;20424;-81
2022/06/07 11:34:25;;;;;;;1.95;1.00;;;;;;;;;;6127000;23;20002;-82
2022/06/07 11:37:02;;;;;;;2.33;0.90;;;;;;;;;;6125763;23;20018;-81
2022/06/07 11:39:30;;;;;;;2.60;1.10;;;;;;;;;;6127437;23;20002;-83
2022/06/07 11:41:58;;;;;;;4.05;1.00;;;;;;;;;;6127322;23;20454;-84
2022/06/07 11:44:34;;;;;;;2.00;1.10;;;;;;;;;;6125800;23;20052;-79
2022/06/07 11:47:14;;;;;;;2.75;1.17;;;;;;;;;;6125505;23;20154;-84
2022/06/07 11:49:46;;;;;;;3.05;1.08;;;;;;;;;;6125570;23;20009;-86
2022/06/07 11:52:13;;;;;;;2.30;0.80;;;;;;;;;;6126845;23;20065;-81
2022/06/07 11:54:45;;;;;;;3.47;1.00;;;;;;;;;;6125873;23;20002;-83
2022/06/07 11:57:32;;;;;;;22.42;2.75;;;;;;;;;;6125304;23;20037;-83
2022/06/07 12:00:20;;;;;;;3.67;1.20;;;;;;;;;;6126336;23;20030;-86
2022/06/07 12:03:01;;;;;;;4.50;1.10;;;;;;;;;;6126281;23;20025;-87
2022/06/07 12:05:48;;;;;;;2.30;1.10;;;;;;;;;;6128012;23;19998;-85
2022/06/07 12:08:19;;;;;;;2.88;1.10;;;;;;;;;;6127969;23;19998;-94
2022/06/07 12:10:55;;;;;;;3.45;1.10;;;;;;;;;;6126350;23;20010;-87
2022/06/07 12:16:29;;;;;;;1.95;1.00;;;;;;;;;;6127344;23;20023;-91
2022/06/07 12:18:58;;;;;;;2.15;1.20;;;;;;;;;;6128146;23;20009;-90
2022/06/07 12:21:25;;;;;;;1.42;1.00;;;;;;;;;;6126396;23;20459;-87
2022/06/07 12:23:53;;;;;;;2.45;1.10;;;;;;;;;;6126416;23;20002;-89
2022/06/07 12:26:27;;;;;;;4.20;1.10;;;;;;;;;;6126344;23;20463;-91
2022/06/07 12:29:01;;;;;;;1.77;0.98;;;;;;;;;;6125158;23;20100;-87
2022/06/07 12:31:28;;;;;;;1.65;1.08;;;;;;;;;;6126085;23;20409;-86
2022/06/07 12:33:57;;;;;;;2.17;1.10;;;;;;;;;;6126382;23;20009;-87
2022/06/07 12:36:25;;;;;;;7.22;1.40;;;;;;;;;;6126339;23;20014;-89
2022/06/07 12:38:52;;;;;;;3.53;1.00;;;;;;;;;;6126238;23;20005;-92
2022/06/07 12:41:22;;;;;;;3.38;1.30;;;;;;;;;;6126424;23;20013;-89
2022/06/07 12:43:51;;;;;;;3.28;1.50;;;;;;;;;;6126484;23;20006;-86
2022/06/07 12:46:41;;;;;;;1.70;1.00;;;;;;;;;;6126470;23;20006;-88
2022/06/07 12:49:19;;;;;;;6.85;1.40;;;;;;;;;;6126946;23;20432;-94
2022/06/07 12:51:53;;;;;;;2.10;1.10;;;;;;;;;;6126278;23;20006;-90
2022/06/07 12:54:22;;;;;;;2.25;1.00;;;;;;;;;;6126195;23;20006;-90
2022/06/07 12:56:49;;;;;;;2.55;1.30;;;;;;;;;;6125906;23;20056;-93
2022/06/07 12:59:23;;;;;;;2.40;1.05;;;;;;;;;;6126216;23;20056;-86
2022/06/07 13:01:50;;;;;;;4.38;1.10;;;;;;;;;;6125895;23;20072;-90
2022/06/07 13:04:26;;;;;;;2.20;1.10;;;;;;;;;;6126029;23;20006;-85
2022/06/07 13:07:03;;;;;;;3.17;1.27;;;;;;;;;;6125993;23;20011;-87
2022/06/07 13:09:30;;;;;;;3.92;1.42;;;;;;;;;;6104555;23;20511;-87
2022/06/07 13:11:57;;;;;;;2.55;1.20;;;;;;;;;;6096626;23;20010;-92
2022/06/07 13:14:24;;;;;;;1.95;1.08;;;;;;;;;;6097948;23;20006;-88
2022/06/07 13:16:52;;;;;;;3.45;1.00;;;;;;;;;;6096228;23;20022;-85
2022/06/07 13:19:20;;;;;;;2.13;1.30;;;;;;;;;;6096707;23;20114;-86
2022/06/07 13:22:14;;;;;;;2.40;1.10;;;;;;;;;;6096871;23;20002;-92
2022/06/07 13:24:43;;;;;;;2.30;1.10;;;;;;;;;;6093393;23;20323;-90
2022/06/07 13:27:28;;;;;;;3.05;1.10;;;;;;;;;;6097210;23;20053;-85
2022/06/07 13:29:54;;;;;;;4.43;1.30;;;;;;;;;;6096732;23;20017;-85
2022/06/07 13:32:22;;;;;;;3.20;1.90;;;;;;;;;;6096553;23;20006;-89
2022/06/07 13:34:54;;;;;;;3.45;2.20;;;;;;;;;;6096727;23;20006;-85
2022/06/07 13:37:21;;;;;;;6.82;2.75;;;;;;;;;;6096572;23;20404;-85
2022/06/07 13:40:02;;;;;;;7.63;2.80;;;;;;;;;;6096881;23;20003;-84
2022/06/07 13:42:33;;;;;;;6.43;2.70;;;;;;;;;;6097156;23;20006;-84
2022/06/07 13:45:12;;;;;;;7.28;2.85;;;;;;;;;;6098514;23;20009;-89
2022/06/07 13:47:43;;;;;;;5.00;2.67;;;;;;;;;;6099123;23;20196;-94
2022/06/07 13:53:22;;;;;;;7.35;2.85;;;;;;;;;;6099972;23;20016;-91
2022/06/07 13:55:51;;;;;;;4.10;2.97;;;;;;;;;;6098234;23;20081;-83
2022/06/07 13:58:19;;;;;;;5.07;2.70;;;;;;;;;;6098501;23;20344;-91
2022/06/07 14:00:46;;;;;;;5.65;2.88;;;;;;;;;;6098305;23;20006;-87
2022/06/07 14:03:41;;;;;;;5.57;3.10;;;;;;;;;;6098316;23;20006;-91
2022/06/07 14:06:26;;;;;;;6.95;2.90;;;;;;;;;;6095274;23;20347;-88
2022/06/07 14:08:57;;;;;;;6.93;3.00;;;;;;;;;;6099304;23;20002;-87
2022/06/07 14:11:26;;;;;;;6.68;2.50;;;;;;;;;;6099759;23;20376;-91
2022/06/07 14:13:53;;;;;;;4.22;2.60;;;;;;;;;;6098275;23;20009;-87
2022/06/07 14:16:27;;;;;;;5.82;2.58;;;;;;;;;;6099629;23;20034;-86
2022/06/07 14:18:54;;;;;;;3.17;2.22;;;;;;;;;;6098277;23;20014;-88
2022/06/07 14:21:20;;;;;;;3.53;2.10;;;;;;;;;;6098425;23;20006;-87
2022/06/07 14:23:46;;;;;;;3.53;2.15;;;;;;;;;;6098313;23;20441;-88
2022/06/07 14:26:13;;;;;;;7.63;2.30;;;;;;;;;;6098635;23;20089;-86
2022/06/07 14:28:40;;;;;;;5.07;2.00;;;;;;;;;;6099335;23;20010;-81
2022/06/07 14:31:06;;;;;;;4.15;2.13;;;;;;;;;;6097449;23;20002;-81
2022/06/07 14:33:33;;;;;;;11.20;2.60;;;;;;;;;;6097345;23;20380;-82
2022/06/07 14:35:59;;;;;;;3.80;2.33;;;;;;;;;;6098986;23;20011;-83
2022/06/07 14:38:25;;;;;;;7.53;2.40;;;;;;;;;;6097687;23;20003;-96
2022/06/07 14:40:52;;;;;;;4.30;2.10;;;;;;;;;;6097665;23;20017;-89
2022/06/07 14:43:19;;;;;;;4.13;2.38;;;;;;;;;;6098366;23;20009;-91
2022/06/07 14:45:48;;;;;;;2.45;2.20;;;;;;;;;;6099547;23;20455;-90
2022/06/07 14:48:22;;;;;;;3.95;2.80;;;;;;;;;;6098169;23;20002;-89
2022/06/07 14:50:48;;;;;;;4.35;2.88;;;;;;;;;;6098093;23;20045;-88
2022/06/07 14:53:14;;;;;;;3.28;2.90;;;;;;;;;;6097686;23;20015;-87
2022/06/07 14:55:48;;;;;;;8.23;3.50;;;;;;;;;;6102476;23;20092;-90
2022/06/07 14:58:15;;;;;;;7.38;3.35;;;;;;;;;;6151946;23;20006;-89
2022/06/07 15:00:45;;;;;;;4.55;3.35;;;;;;;;;;6129155;23;20006;-87
2022/06/07 15:03:12;;;;;;;8.45;3.70;;;;;;;;;;6152235;23;20006;-88
2022/06/07 15:05:38;;;;;;;5.25;3.33;;;;;;;;;;6151666;23;20010;-86
2022/06/07 15:08:07;;;;;;;9.40;3.97;;;;;;;;;;6151637;23;20010;-88
2022/06/07 15:10:37;;;;;;;5.28;4.28;;;;;;;;;;6151667;23;20041;-87
2022/06/07 15:13:10;;;;;;;6.13;3.97;;;;;;;;;;6151502;23;20092;-88
2022/06/07 15:15:36;;;;;;;5.00;4.10;;;;;;;;;;6151753;23;20013;-84
2022/06/07 15:18:03;;;;;;;5.28;4.00;;;;;;;;;;6151820;23;20116;-88
2022/06/07 15:20:34;;;;;;;9.25;4.00;;;;;;;;;;6152155;23;20056;-88
2022/06/07 15:23:04;;;;;;;7.13;4.40;;;;;;;;;;6127032;23;20037;-90
2022/06/07 15:25:31;;;;;;;5.50;4.10;;;;;;;;;;6151436;23;20064;-87
2022/06/07 15:31:01;;;;;;;6.32;4.22;;;;;;;;;;6128240;23;20092;-87